Time;durP1;ratioP1;P1;durP2;ratioP2;P2;SDS_P1;SDS_P2;PMS_P1;PMS_P2;Temp;Humidity;BMP_temperature;BMP_pressure;BME280_temperature;BME280_humidity;BME280_pressure;Samples;Min_cycle;Max_cycle;Signal;HPM_P1;HPM_P2
2023/08/20 00:00:10;;;;;;;8.00;5.45;;;24.50;99.90;;;;;;5011821;28;20121;-51
2023/08/20 00:02:37;;;;;;;7.63;5.20;;;24.40;99.90;;;;;;5013333;28;20030;-48
2023/08/20 00:05:04;;;;;;;5.40;4.53;;;24.40;99.90;;;;;;5031017;28;20032;-50
2023/08/20 00:07:33;;;;;;;15.68;4.55;;;24.40;99.90;;;;;;4980871;28;20113;-50
2023/08/20 00:09:59;;;;;;;6.65;4.57;;;24.40;99.90;;;;;;5013052;28;20057;-47
2023/08/20 00:12:25;;;;;;;7.65;4.75;;;24.40;99.90;;;;;;5013175;28;20026;-47
2023/08/20 00:15:04;;;;;;;5.35;4.15;;;24.40;99.90;;;;;;4981257;28;20112;-49
2023/08/20 00:17:38;;;;;;;12.82;4.88;;;24.30;99.90;;;;;;5013955;28;20130;-54
2023/08/20 00:20:10;;;;;;;9.32;5.28;;;24.20;99.90;;;;;;5013879;28;20041;-52
2023/08/20 00:22:36;;;;;;;6.70;5.38;;;24.10;99.90;;;;;;5013945;28;20033;-54
2023/08/20 00:25:04;;;;;;;8.95;5.22;;;24.10;99.90;;;;;;5013490;28;20049;-53
2023/08/20 00:27:29;;;;;;;7.32;4.90;;;24.00;99.90;;;;;;5033237;28;20018;-52
2023/08/20 00:29:55;;;;;;;11.25;4.88;;;24.00;99.90;;;;;;5016591;28;20075;-54
2023/08/20 00:32:21;;;;;;;9.10;5.35;;;23.90;99.90;;;;;;5016608;28;20025;-52
2023/08/20 00:34:46;;;;;;;7.05;4.88;;;23.90;99.90;;;;;;5016969;28;20029;-54
2023/08/20 00:37:12;;;;;;;10.27;5.82;;;23.80;99.90;;;;;;5016746;28;20032;-53
2023/08/20 00:39:38;;;;;;;10.75;5.43;;;23.80;99.90;;;;;;5016435;28;20032;-51
2023/08/20 00:42:04;;;;;;;26.92;19.55;;;23.80;99.90;;;;;;5016660;28;20472;-53
2023/08/20 00:44:30;;;;;;;18.48;11.32;;;23.80;99.90;;;;;;5016573;28;20061;-50
2023/08/20 00:46:56;;;;;;;82.10;52.78;;;23.70;99.90;;;;;;5016351;28;20036;-51
2023/08/20 00:49:22;;;;;;;10.38;5.80;;;23.70;99.90;;;;;;5016380;28;20021;-50
2023/08/20 00:51:48;;;;;;;9.52;5.47;;;23.70;99.90;;;;;;5000139;28;20030;-55
2023/08/20 00:54:14;;;;;;;8.18;5.50;;;23.70;99.90;;;;;;5034051;28;20033;-52
2023/08/20 00:56:39;;;;;;;8.25;5.05;;;23.70;99.90;;;;;;5016285;28;20037;-54
2023/08/20 00:59:06;;;;;;;7.07;5.75;;;23.70;99.90;;;;;;5016046;28;20117;-53
2023/08/20 01:01:31;;;;;;;12.27;5.50;;;23.80;99.90;;;;;;5015975;28;20476;-51
2023/08/20 01:03:57;;;;;;;7.80;5.15;;;23.80;99.90;;;;;;5016298;28;20025;-51
2023/08/20 01:07:11;;;;;;;9.77;5.15;;;23.80;99.90;;;;;;5016111;28;20457;-53
2023/08/20 01:09:51;;;;;;;12.77;5.45;;;23.80;99.90;;;;;;5002323;28;20665;-54
2023/08/20 01:12:19;;;;;;;7.20;5.47;;;23.70;99.90;;;;;;5033996;28;20034;-51
2023/08/20 01:14:44;;;;;;;10.77;5.65;;;23.70;99.90;;;;;;5016200;28;20029;-53
2023/08/20 01:17:10;;;;;;;12.27;5.90;;;23.70;99.90;;;;;;5015937;28;20381;-50
2023/08/20 01:19:36;;;;;;;10.75;5.38;;;23.70;99.90;;;;;;5015717;28;20033;-55
2023/08/20 01:22:04;;;;;;;10.85;5.85;;;23.70;99.90;;;;;;5015760;28;20036;-53
2023/08/20 01:24:54;;;;;;;13.00;5.80;;;23.60;99.90;;;;;;5015712;28;20374;-52
2023/08/20 01:27:46;;;;;;;11.10;6.32;;;23.60;99.90;;;;;;5015692;28;20576;-54
2023/08/20 01:30:12;;;;;;;7.40;5.20;;;23.50;99.90;;;;;;5015408;28;20113;-50
2023/08/20 01:32:41;;;;;;;6.97;5.82;;;23.40;99.90;;;;;;5015739;28;20185;-52
2023/08/20 01:35:13;;;;;;;9.13;5.97;;;23.40;99.90;;;;;;5015598;28;20109;-51
2023/08/20 01:37:40;;;;;;;8.35;5.47;;;23.30;99.90;;;;;;5033094;28;20105;-55
2023/08/20 01:40:08;;;;;;;6.47;4.85;;;23.40;99.90;;;;;;5014947;28;20025;-53
2023/08/20 01:42:33;;;;;;;5.18;4.68;;;23.30;99.90;;;;;;5015302;28;20029;-52
2023/08/20 01:44:59;;;;;;;6.15;4.88;;;23.20;99.90;;;;;;5033225;28;20400;-49
2023/08/20 01:47:24;;;;;;;7.65;4.95;;;23.10;99.90;;;;;;5015279;28;20026;-54
2023/08/20 01:49:50;;;;;;;13.75;5.20;;;23.10;99.90;;;;;;5015069;28;20528;-55
2023/08/20 01:52:15;;;;;;;10.20;5.72;;;23.00;99.90;;;;;;5015403;28;20061;-53
2023/08/20 01:54:41;;;;;;;8.88;5.47;;;22.90;99.90;;;;;;5015114;28;20554;-52
2023/08/20 01:57:07;;;;;;;5.03;4.60;;;22.90;99.90;;;;;;4998902;28;20032;-49
2023/08/20 01:59:32;;;;;;;6.80;5.38;;;22.80;99.90;;;;;;5014945;28;20071;-50
2023/08/20 02:01:58;;;;;;;5.43;4.85;;;22.70;99.90;;;;;;5015004;28;20159;-52
2023/08/20 02:04:23;;;;;;;9.05;5.28;;;22.70;99.90;;;;;;5015107;28;20048;-54
2023/08/20 02:06:49;;;;;;;10.68;5.78;;;22.60;99.90;;;;;;5014962;28;20037;-54
2023/08/20 02:09:14;;;;;;;12.40;7.20;;;22.50;99.90;;;;;;5014692;28;20013;-52
2023/08/20 02:11:40;;;;;;;7.82;5.63;;;22.40;99.90;;;;;;5014759;28;20137;-55
2023/08/20 02:14:06;;;;;;;6.78;5.78;;;22.40;99.90;;;;;;5014557;28;20017;-55
2023/08/20 02:16:31;;;;;;;7.78;5.60;;;22.30;99.90;;;;;;5014776;28;20124;-53
2023/08/20 02:18:57;;;;;;;15.40;6.43;;;22.30;99.90;;;;;;5014915;28;20317;-51
2023/08/20 02:21:23;;;;;;;8.38;5.38;;;22.20;99.90;;;;;;5014802;28;20409;-56
2023/08/20 02:23:48;;;;;;;7.05;5.60;;;22.30;99.90;;;;;;5014868;28;20048;-56
2023/08/20 02:26:14;;;;;;;7.75;5.47;;;22.20;99.90;;;;;;5014920;28;20057;-54
2023/08/20 02:28:40;;;;;;;5.82;5.32;;;22.20;99.90;;;;;;5014676;28;20044;-57
2023/08/20 02:31:06;;;;;;;6.22;4.80;;;22.30;99.90;;;;;;5014643;28;20021;-53
2023/08/20 02:33:31;;;;;;;9.05;5.32;;;22.30;99.90;;;;;;5032334;28;20044;-53
2023/08/20 02:36:04;;;;;;;8.73;5.55;;;22.40;99.90;;;;;;5014407;28;20451;-53
2023/08/20 02:38:29;;;;;;;10.50;6.65;;;22.40;99.90;;;;;;5014495;28;20128;-56
2023/08/20 02:40:55;;;;;;;7.70;5.70;;;22.40;99.90;;;;;;5014211;28;20112;-54
2023/08/20 02:43:21;;;;;;;14.05;6.30;;;22.40;99.90;;;;;;5014506;28;20049;-51
2023/08/20 02:45:47;;;;;;;8.55;5.32;;;22.40;99.90;;;;;;5015145;28;20025;-54
2023/08/20 02:48:14;;;;;;;14.23;6.45;;;22.40;99.90;;;;;;5014512;28;20166;-50
2023/08/20 02:50:39;;;;;;;10.18;6.45;;;22.50;99.90;;;;;;5013637;28;20025;-51
2023/08/20 02:53:05;;;;;;;10.40;5.60;;;22.50;99.90;;;;;;5014559;28;20036;-52
2023/08/20 02:55:32;;;;;;;9.07;5.25;;;22.50;99.90;;;;;;5014352;28;20022;-50
2023/08/20 02:57:58;;;;;;;9.52;5.50;;;22.50;99.90;;;;;;5014223;28;20542;-52
2023/08/20 03:00:24;;;;;;;6.35;5.10;;;22.50;99.90;;;;;;5013875;28;20036;-51
2023/08/20 03:02:50;;;;;;;9.23;5.57;;;22.50;99.90;;;;;;5014329;28;20382;-53
2023/08/20 03:05:15;;;;;;;8.27;5.07;;;22.40;99.90;;;;;;5014455;28;20481;-56
2023/08/20 03:07:41;;;;;;;10.40;5.45;;;22.50;99.90;;;;;;5014096;28;20554;-52
2023/08/20 03:10:07;;;;;;;6.07;4.72;;;22.40;99.90;;;;;;5013832;28;20025;-50
2023/08/20 03:12:32;;;;;;;7.88;4.97;;;22.40;99.90;;;;;;5014167;28;20025;-49
2023/08/20 03:14:59;;;;;;;6.90;5.15;;;22.30;99.90;;;;;;5013646;28;20607;-53
2023/08/20 03:17:24;;;;;;;5.85;5.18;;;22.30;99.90;;;;;;5013815;28;20026;-50
2023/08/20 03:20:00;;;;;;;12.20;5.90;;;22.30;99.90;;;;;;5013596;28;20036;-53
2023/08/20 03:22:27;;;;;;;6.53;5.80;;;22.30;99.90;;;;;;5031508;28;20053;-54
2023/08/20 03:24:53;;;;;;;7.30;5.95;;;22.30;99.90;;;;;;5013950;28;20108;-54
2023/08/20 03:27:19;;;;;;;5.68;5.15;;;22.20;99.90;;;;;;5013882;28;20025;-53
2023/08/20 03:29:45;;;;;;;9.77;7.25;;;22.20;99.90;;;;;;5015106;28;20071;-53
2023/08/20 03:32:11;;;;;;;12.02;5.78;;;22.20;99.90;;;;;;5014250;28;20061;-52
2023/08/20 03:34:37;;;;;;;12.00;5.63;;;22.10;99.90;;;;;;5013743;28;20064;-51
2023/08/20 03:37:03;;;;;;;7.20;5.30;;;22.00;99.90;;;;;;5013649;28;20025;-49
2023/08/20 03:39:29;;;;;;;8.48;5.70;;;21.90;99.90;;;;;;5013473;28;20558;-53
2023/08/20 03:41:55;;;;;;;8.50;6.25;;;21.80;99.90;;;;;;5013649;28;20022;-51
2023/08/20 03:44:21;;;;;;;8.40;5.63;;;21.70;99.90;;;;;;5013792;28;20022;-54
2023/08/20 03:46:46;;;;;;;10.45;6.03;;;21.80;99.90;;;;;;5013715;28;20125;-53
2023/08/20 03:49:12;;;;;;;6.68;5.13;;;21.70;99.90;;;;;;5013586;28;20108;-49
2023/08/20 03:51:37;;;;;;;10.70;6.13;;;21.70;99.90;;;;;;5013521;28;20424;-53
2023/08/20 03:54:03;;;;;;;13.55;5.75;;;21.80;99.90;;;;;;5013516;28;20026;-53
2023/08/20 03:56:29;;;;;;;11.35;5.97;;;21.80;99.90;;;;;;5013449;28;20084;-53
2023/08/20 03:58:55;;;;;;;10.48;5.70;;;21.80;99.90;;;;;;5013397;28;20167;-49
2023/08/20 04:01:21;;;;;;;8.88;6.38;;;21.70;99.90;;;;;;5013754;28;20060;-51
2023/08/20 04:03:47;;;;;;;6.25;5.70;;;21.70;99.90;;;;;;5017226;28;20057;-52
2023/08/20 04:06:13;;;;;;;8.70;5.88;;;21.70;99.90;;;;;;5017184;28;20048;-50
2023/08/20 04:08:38;;;;;;;10.68;5.72;;;21.80;99.90;;;;;;5017159;28;20493;-51
2023/08/20 04:11:04;;;;;;;9.43;5.55;;;21.80;99.90;;;;;;5017100;28;20025;-52
2023/08/20 04:13:30;;;;;;;13.60;6.38;;;21.90;99.90;;;;;;5016759;28;20033;-51
2023/08/20 04:15:55;;;;;;;10.68;5.68;;;21.80;99.90;;;;;;5017038;28;20021;-55
2023/08/20 04:18:21;;;;;;;9.30;6.00;;;21.80;99.90;;;;;;5017049;28;20129;-52
2023/08/20 04:20:49;;;;;;;7.80;5.60;;;21.80;99.90;;;;;;5016687;28;20029;-53
2023/08/20 04:23:15;;;;;;;6.40;5.10;;;21.80;99.90;;;;;;5017002;28;20028;-53
2023/08/20 04:25:41;;;;;;;10.13;5.45;;;21.70;99.90;;;;;;5016769;28;20124;-55
2023/08/20 04:28:06;;;;;;;6.20;5.13;;;21.70;99.90;;;;;;5016920;28;20021;-49
2023/08/20 04:30:34;;;;;;;9.02;4.90;;;21.70;99.90;;;;;;5016626;28;20048;-50
2023/08/20 04:32:59;;;;;;;9.15;5.28;;;21.70;99.90;;;;;;5016930;28;20076;-51
2023/08/20 04:35:25;;;;;;;7.40;5.30;;;21.70;99.90;;;;;;5016628;28;20029;-51
2023/08/20 04:37:50;;;;;;;9.68;5.88;;;21.80;99.90;;;;;;5016712;28;20021;-51
2023/08/20 04:40:16;;;;;;;11.68;6.25;;;21.80;99.90;;;;;;5016453;28;20118;-48
2023/08/20 04:42:41;;;;;;;8.32;5.28;;;21.90;99.90;;;;;;5016777;28;20392;-52
2023/08/20 04:45:08;;;;;;;6.65;5.15;;;21.80;99.90;;;;;;5016512;28;20552;-52
2023/08/20 04:47:33;;;;;;;11.20;5.28;;;22.10;99.90;;;;;;5016597;28;20025;-52
2023/08/20 04:49:59;;;;;;;9.27;5.50;;;22.10;99.90;;;;;;5016414;28;20022;-55
2023/08/20 04:52:25;;;;;;;7.20;5.28;;;22.30;99.90;;;;;;5016485;28;20041;-51
2023/08/20 04:54:50;;;;;;;8.85;5.55;;;22.30;99.90;;;;;;5016459;28;20029;-53
2023/08/20 04:57:16;;;;;;;10.10;5.63;;;22.40;99.90;;;;;;5016461;28;20120;-52
2023/08/20 04:59:45;;;;;;;5.70;5.03;;;22.50;99.90;;;;;;5016136;28;20067;-49
2023/08/20 05:02:11;;;;;;;9.25;5.05;;;22.50;99.90;;;;;;5016222;28;20033;-51
2023/08/20 05:04:36;;;;;;;7.32;5.63;;;22.60;99.90;;;;;;5016141;28;20160;-50
2023/08/20 05:07:03;;;;;;;6.78;5.00;;;22.60;99.90;;;;;;5016061;28;20492;-54
2023/08/20 05:09:28;;;;;;;15.15;5.90;;;22.60;99.90;;;;;;5015669;28;20493;-52
2023/08/20 05:11:54;;;;;;;11.77;5.68;;;22.60;99.90;;;;;;5015949;28;20030;-54
2023/08/20 05:14:19;;;;;;;6.45;5.45;;;22.60;99.90;;;;;;5015865;28;20056;-49
2023/08/20 05:16:45;;;;;;;12.35;5.18;;;22.60;99.90;;;;;;5015985;28;20373;-51
2023/08/20 05:19:11;;;;;;;5.88;5.28;;;22.70;99.90;;;;;;5015888;28;20115;-51
2023/08/20 05:21:36;;;;;;;8.45;5.10;;;22.90;99.90;;;;;;5015722;28;20029;-53
2023/08/20 05:24:02;;;;;;;5.95;4.63;;;23.00;99.90;;;;;;5015666;28;20052;-52
2023/08/20 05:26:27;;;;;;;10.02;5.30;;;23.10;99.90;;;;;;5015718;28;20022;-48
2023/08/20 05:28:53;;;;;;;8.70;5.32;;;23.30;99.90;;;;;;5015638;28;20037;-47
2023/08/20 05:31:19;;;;;;;8.07;5.32;;;23.50;99.90;;;;;;5015535;28;20464;-53
2023/08/20 05:33:44;;;;;;;7.82;4.93;;;23.70;99.90;;;;;;5015654;28;20519;-52
2023/08/20 05:36:10;;;;;;;8.82;4.63;;;23.80;99.90;;;;;;5033271;28;20034;-49
2023/08/20 05:38:35;;;;;;;6.78;4.93;;;24.10;99.90;;;;;;5015505;28;20025;-50
2023/08/20 05:41:01;;;;;;;7.30;4.78;;;24.40;99.90;;;;;;5015239;28;20060;-52
2023/08/20 05:43:26;;;;;;;7.13;5.82;;;24.40;99.90;;;;;;5015475;28;20570;-50
2023/08/20 05:45:52;;;;;;;6.57;5.28;;;24.40;99.90;;;;;;5015293;28;20052;-49
2023/08/20 05:48:17;;;;;;;10.80;5.18;;;24.20;99.90;;;;;;5015358;28;20025;-51
2023/08/20 05:50:44;;;;;;;7.45;5.22;;;24.20;99.90;;;;;;5015066;28;20112;-50
2023/08/20 05:53:09;;;;;;;6.35;5.25;;;24.20;99.90;;;;;;5015191;28;20035;-48
2023/08/20 05:55:35;;;;;;;9.52;5.70;;;24.20;99.90;;;;;;5015455;28;20122;-48
2023/08/20 05:58:00;;;;;;;8.93;5.00;;;24.30;99.90;;;;;;5033240;28;20029;-50
2023/08/20 06:00:26;;;;;;;6.90;5.10;;;24.10;99.90;;;;;;5014808;28;20393;-52
2023/08/20 06:02:51;;;;;;;6.25;5.28;;;24.10;99.90;;;;;;5015464;28;20021;-49
2023/08/20 06:05:17;;;;;;;8.18;6.03;;;24.00;99.90;;;;;;5014968;28;20057;-48
2023/08/20 06:07:43;;;;;;;9.15;4.93;;;24.10;99.90;;;;;;5015028;28;20029;-53
2023/08/20 06:10:08;;;;;;;8.75;4.80;;;24.30;99.90;;;;;;5014693;28;20063;-50
2023/08/20 06:12:34;;;;;;;9.82;4.50;;;24.50;99.90;;;;;;5014910;28;20392;-54
2023/08/20 06:15:00;;;;;;;5.22;4.70;;;24.80;99.90;;;;;;5014432;28;20041;-52
2023/08/20 06:17:25;;;;;;;5.13;4.72;;;25.10;99.90;;;;;;5014990;28;20021;-50
2023/08/20 06:19:51;;;;;;;6.45;4.32;;;25.20;99.90;;;;;;5014561;28;20129;-53
2023/08/20 06:22:16;;;;;;;10.60;4.97;;;25.30;99.90;;;;;;5014616;28;20029;-53
2023/08/20 06:24:42;;;;;;;6.60;5.03;;;25.40;99.90;;;;;;5014044;28;20027;-53
2023/08/20 06:27:07;;;;;;;7.68;5.65;;;25.30;99.90;;;;;;5014878;28;20044;-53
2023/08/20 06:29:33;;;;;;;6.47;5.75;;;25.40;99.90;;;;;;5014298;28;20048;-53
2023/08/20 06:31:58;;;;;;;7.90;5.00;;;25.60;99.90;;;;;;5014571;28;20029;-50
2023/08/20 06:34:24;;;;;;;11.63;6.95;;;25.90;99.90;;;;;;5014587;28;20033;-49
2023/08/20 06:36:49;;;;;;;12.23;5.57;;;26.20;99.90;;;;;;5014490;28;20497;-51
2023/08/20 06:39:15;;;;;;;7.82;5.28;;;26.60;99.90;;;;;;5014449;28;20551;-51
2023/08/20 06:41:41;;;;;;;8.90;5.30;;;26.90;99.90;;;;;;5014503;28;20025;-52
2023/08/20 06:44:07;;;;;;;5.82;5.28;;;27.20;99.90;;;;;;5014259;28;20515;-53
2023/08/20 06:46:32;;;;;;;7.35;5.10;;;27.40;99.90;;;;;;5014085;28;20041;-53
2023/08/20 06:48:58;;;;;;;9.95;4.78;;;27.80;99.90;;;;;;5014200;28;20022;-53
2023/08/20 06:51:25;;;;;;;7.65;4.65;;;28.10;99.90;;;;;;5014211;28;20132;-51
2023/08/20 06:53:51;;;;;;;6.75;5.03;;;28.60;99.90;;;;;;5014163;28;20120;-51
2023/08/20 06:56:16;;;;;;;12.85;4.90;;;29.30;99.90;;;;;;5014119;28;20116;-47
2023/08/20 06:58:42;;;;;;;8.70;4.88;;;29.80;99.90;;;;;;5014183;28;20032;-51
2023/08/20 07:01:08;;;;;;;8.88;5.40;;;30.60;99.90;;;;;;4997622;28;20103;-57
2023/08/20 07:03:37;;;;;;;6.85;5.45;;;31.10;99.90;;;;;;5014178;28;20028;-53
2023/08/20 07:06:02;;;;;;;9.43;5.80;;;31.60;99.90;;;;;;5014057;28;20063;-50
2023/08/20 07:08:28;;;;;;;8.05;5.45;;;31.80;99.90;;;;;;4997763;28;20396;-50
2023/08/20 07:10:53;;;;;;;8.68;4.40;;;31.50;99.90;;;;;;5013966;28;20025;-52
2023/08/20 07:13:19;;;;;;;8.45;4.60;;;31.50;99.90;;;;;;5013839;28;20037;-49
2023/08/20 07:15:44;;;;;;;8.13;5.05;;;31.30;99.90;;;;;;5031612;28;20068;-51
2023/08/20 07:18:13;;;;;;;6.20;4.97;;;30.70;99.90;;;;;;4997660;28;20049;-56
2023/08/20 07:20:39;;;;;;;7.82;5.10;;;29.50;99.90;;;;;;5014009;28;20036;-52
2023/08/20 07:23:04;;;;;;;9.00;5.45;;;28.80;99.90;;;;;;5014150;28;20489;-55
2023/08/20 07:25:30;;;;;;;10.05;4.60;;;29.10;99.90;;;;;;5013845;28;20283;-55
2023/08/20 07:27:59;;;;;;;7.45;4.97;;;30.00;99.90;;;;;;5014014;28;20160;-58
2023/08/20 07:30:25;;;;;;;6.40;5.15;;;30.90;99.90;;;;;;5013719;28;20033;-53
2023/08/20 07:32:51;;;;;;;8.60;5.00;;;31.40;99.90;;;;;;5014037;28;20017;-53
2023/08/20 07:35:16;;;;;;;8.07;4.95;;;31.20;99.90;;;;;;5014693;28;20107;-54
2023/08/20 07:37:42;;;;;;;9.27;4.47;;;31.60;99.90;;;;;;5019254;28;20026;-54
2023/08/20 07:40:08;;;;;;;4.43;4.03;;;31.60;99.90;;;;;;5001544;28;20113;-54
2023/08/20 07:42:33;;;;;;;11.13;4.97;;;31.90;99.90;;;;;;5017825;28;20029;-53
2023/08/20 07:44:59;;;;;;;9.13;4.50;;;32.80;99.90;;;;;;5018556;28;20527;-53
2023/08/20 07:47:25;;;;;;;13.43;4.57;;;33.50;99.70;;;;;;5036306;28;20289;-53
2023/08/20 07:49:50;;;;;;;7.60;5.38;;;34.00;98.90;;;;;;5035442;28;20017;-55
2023/08/20 07:52:16;;;;;;;5.95;4.45;;;34.10;98.10;;;;;;5017890;28;20033;-50
2023/08/20 07:54:44;;;;;;;6.32;4.68;;;34.30;98.10;;;;;;5017872;28;20510;-50
2023/08/20 07:57:09;;;;;;;5.95;4.15;;;34.20;97.90;;;;;;5017707;28;20034;-50
2023/08/20 07:59:35;;;;;;;6.75;4.28;;;34.70;97.30;;;;;;5017546;28;20071;-56
2023/08/20 08:02:01;;;;;;;8.40;4.80;;;35.20;96.40;;;;;;5018172;28;20025;-51
2023/08/20 08:04:27;;;;;;;5.53;4.25;;;35.30;96.40;;;;;;5017804;28;20040;-54
2023/08/20 08:06:52;;;;;;;7.53;4.75;;;35.40;95.90;;;;;;5017552;28;20025;-53
2023/08/20 08:09:29;;;;;;;8.38;4.10;;;35.50;95.60;;;;;;5000831;28;20545;-53
2023/08/20 08:11:54;;;;;;;6.50;3.90;;;35.70;95.40;;;;;;5017431;28;20076;-53
2023/08/20 08:14:20;;;;;;;8.80;4.47;;;35.90;95.40;;;;;;5017112;28;20489;-52
2023/08/20 08:16:46;;;;;;;5.32;3.83;;;36.60;95.00;;;;;;5017120;28;20459;-54
2023/08/20 08:19:12;;;;;;;5.88;3.80;;;37.00;93.60;;;;;;5017097;28;20026;-50
2023/08/20 08:21:38;;;;;;;8.65;3.70;;;37.00;93.30;;;;;;5016770;28;20480;-54
2023/08/20 08:24:04;;;;;;;4.70;3.67;;;37.00;93.00;;;;;;5017214;28;20025;-50
2023/08/20 08:26:30;;;;;;;6.57;3.92;;;36.40;93.10;;;;;;5016866;28;20112;-49
2023/08/20 08:28:56;;;;;;;6.40;4.10;;;36.30;93.90;;;;;;5016897;28;20052;-53
2023/08/20 08:31:21;;;;;;;8.85;4.32;;;36.20;93.70;;;;;;5034374;28;20556;-50
2023/08/20 08:33:47;;;;;;;6.05;3.55;;;35.80;93.50;;;;;;5000380;28;20025;-55
2023/08/20 08:36:15;;;;;;;8.27;3.90;;;35.50;94.20;;;;;;5016667;28;20155;-51
2023/08/20 08:38:40;;;;;;;5.03;4.28;;;35.80;93.90;;;;;;5000707;28;20029;-52
2023/08/20 08:41:11;;;;;;;4.88;3.75;;;36.30;94.20;;;;;;5016939;28;20031;-53
2023/08/20 08:43:38;;;;;;;6.90;4.43;;;36.20;93.50;;;;;;5017116;28;20022;-52
2023/08/20 08:46:07;;;;;;;15.13;3.65;;;37.00;92.20;;;;;;5035533;22;20291;-50
2023/08/20 08:48:35;;;;;;;5.28;3.67;;;37.00;92.60;;;;;;4996167;28;20042;-45
2023/08/20 08:51:01;;;;;;;9.30;4.72;;;37.00;91.90;;;;;;4996417;28;20037;-51
2023/08/20 08:53:26;;;;;;;5.63;3.90;;;36.80;92.10;;;;;;4996795;28;20030;-49
2023/08/20 08:55:52;;;;;;;7.45;3.95;;;36.50;92.50;;;;;;5013046;28;20030;-47
2023/08/20 08:58:18;;;;;;;13.70;4.75;;;35.90;92.10;;;;;;4996594;28;20048;-46
2023/08/20 09:00:43;;;;;;;6.78;4.80;;;35.70;93.40;;;;;;4996291;28;20026;-48
2023/08/20 09:03:09;;;;;;;8.25;4.65;;;35.20;93.80;;;;;;4996638;28;20026;-49
2023/08/20 09:05:49;;;;;;;6.38;4.45;;;34.80;94.00;;;;;;5014105;28;20469;-46
2023/08/20 09:08:22;;;;;;;21.05;15.20;;;34.70;94.40;;;;;;4996485;28;20474;-48
2023/08/20 09:10:51;;;;;;;8.65;6.55;;;34.30;94.40;;;;;;4996219;28;20030;-50
2023/08/20 09:13:17;;;;;;;5.30;4.60;;;34.00;95.10;;;;;;5013182;28;20030;-51
2023/08/20 09:15:42;;;;;;;6.05;4.88;;;33.40;96.10;;;;;;4996208;28;20041;-48
2023/08/20 09:18:11;;;;;;;6.35;4.57;;;33.30;96.90;;;;;;4995485;28;20394;-53
2023/08/20 09:20:37;;;;;;;7.00;4.80;;;33.50;96.30;;;;;;4993156;28;20029;-54
2023/08/20 09:23:03;;;;;;;7.70;4.80;;;33.40;96.20;;;;;;4994935;28;20397;-47
2023/08/20 09:25:28;;;;;;;6.43;5.10;;;33.30;96.30;;;;;;4978738;28;20026;-48
2023/08/20 09:27:54;;;;;;;6.75;4.25;;;33.30;96.90;;;;;;5013536;28;20080;-49
2023/08/20 09:30:20;;;;;;;7.35;4.40;;;33.50;96.60;;;;;;4995687;28;20018;-53
2023/08/20 09:33:07;;;;;;;6.10;4.68;;;33.60;96.10;;;;;;4992597;28;20022;-49
2023/08/20 09:35:33;;;;;;;9.57;4.65;;;33.90;96.00;;;;;;4980614;28;20057;-48
2023/08/20 09:38:00;;;;;;;7.38;4.85;;;33.90;95.40;;;;;;5028444;28;20026;-48
2023/08/20 09:40:26;;;;;;;5.28;4.43;;;33.80;95.50;;;;;;5028224;28;20026;-51
2023/08/20 09:42:53;;;;;;;8.20;4.35;;;33.80;96.30;;;;;;5028522;28;20164;-48
2023/08/20 09:45:20;;;;;;;4.88;4.38;;;33.70;95.50;;;;;;5028567;28;20022;-46
2023/08/20 09:47:49;;;;;;;6.72;3.85;;;34.00;95.60;;;;;;5013188;28;20030;-53
2023/08/20 09:50:20;;;;;;;7.93;4.32;;;34.00;95.30;;;;;;5010485;28;20022;-50
2023/08/20 09:53:02;;;;;;;6.82;4.88;;;33.50;95.40;;;;;;5028160;28;20121;-49
2023/08/20 09:55:31;;;;;;;4.55;3.72;;;33.40;95.90;;;;;;5013224;28;20026;-46
2023/08/20 09:57:57;;;;;;;7.63;5.07;;;33.30;96.30;;;;;;5028205;28;20384;-48
2023/08/20 10:00:23;;;;;;;4.03;3.70;;;33.30;96.00;;;;;;5012987;28;20055;-46
2023/08/20 10:02:50;;;;;;;6.32;4.50;;;33.20;95.80;;;;;;5011773;28;20149;-45
2023/08/20 10:05:15;;;;;;;9.40;5.55;;;33.20;96.10;;;;;;5011807;28;20022;-45
2023/08/20 10:07:43;;;;;;;5.70;4.55;;;33.10;95.70;;;;;;5028013;28;20028;-47
2023/08/20 10:10:11;;;;;;;5.88;3.90;;;32.90;95.80;;;;;;5027827;28;20295;-47
2023/08/20 10:12:41;;;;;;;6.03;4.80;;;32.60;96.50;;;;;;5027875;28;20034;-50
2023/08/20 10:15:11;;;;;;;4.55;3.92;;;32.60;96.40;;;;;;5012809;28;20037;-50
2023/08/20 10:17:39;;;;;;;10.07;4.70;;;32.50;96.60;;;;;;5027714;28;20029;-51
2023/08/20 10:20:05;;;;;;;5.82;4.72;;;32.50;97.00;;;;;;5027615;28;20480;-46
2023/08/20 10:22:33;;;;;;;7.57;4.47;;;32.60;97.60;;;;;;5027683;28;20083;-45
2023/08/20 10:25:02;;;;;;;6.63;5.25;;;32.30;97.30;;;;;;5027665;28;20404;-48
2023/08/20 10:27:31;;;;;;;6.03;4.70;;;32.20;97.90;;;;;;5012653;28;20033;-45
2023/08/20 10:29:58;;;;;;;4.90;4.40;;;32.20;97.80;;;;;;5012524;28;20022;-48
2023/08/20 10:32:44;;;;;;;14.85;13.30;;;31.90;98.10;;;;;;5027659;28;20038;-45
2023/08/20 10:35:09;;;;;;;10.32;8.77;;;31.90;98.10;;;;;;4994871;28;20029;-46
2023/08/20 10:37:37;;;;;;;5.88;4.57;;;31.80;97.80;;;;;;5027571;28;20041;-47
2023/08/20 10:40:04;;;;;;;5.30;4.22;;;31.60;97.40;;;;;;5017936;28;20026;-45
2023/08/20 10:42:30;;;;;;;9.10;4.75;;;31.20;98.10;;;;;;5012121;28;20111;-48
2023/08/20 10:45:08;;;;;;;5.45;4.22;;;31.10;97.90;;;;;;4994514;28;20021;-50
2023/08/20 10:47:44;;;;;;;4.50;3.88;;;31.00;98.00;;;;;;4994195;28;20037;-48
2023/08/20 10:50:11;;;;;;;5.80;3.67;;;31.00;99.10;;;;;;4994003;28;20032;-46
2023/08/20 10:52:41;;;;;;;5.28;3.83;;;31.10;98.20;;;;;;5027109;28;20026;-48
2023/08/20 10:55:10;;;;;;;4.75;4.15;;;31.00;97.00;;;;;;5012197;28;20030;-52
2023/08/20 10:57:36;;;;;;;7.28;3.75;;;30.90;96.60;;;;;;5011835;28;20519;-47
2023/08/20 11:00:14;;;;;;;5.30;3.45;;;30.90;97.40;;;;;;5026924;28;20053;-47
2023/08/20 11:02:40;;;;;;;6.25;3.85;;;30.90;96.40;;;;;;5012186;28;20038;-46
2023/08/20 11:05:21;;;;;;;6.05;3.78;;;30.90;97.50;;;;;;5027021;28;20105;-47
2023/08/20 11:07:47;;;;;;;5.75;4.13;;;30.90;97.80;;;;;;5011264;28;20018;-45
2023/08/20 11:10:14;;;;;;;7.10;4.20;;;30.80;98.40;;;;;;5009836;28;20033;-47
2023/08/20 11:12:41;;;;;;;4.47;3.70;;;30.80;99.30;;;;;;5011618;28;20109;-46
2023/08/20 11:15:08;;;;;;;6.93;3.85;;;30.70;98.70;;;;;;5011629;28;20038;-46
2023/08/20 11:17:34;;;;;;;4.60;4.18;;;30.70;99.40;;;;;;5026624;28;20100;-47
2023/08/20 11:20:00;;;;;;;4.57;3.58;;;30.80;98.60;;;;;;5011373;28;20026;-46
2023/08/20 11:22:27;;;;;;;4.10;3.72;;;30.80;98.80;;;;;;5026587;28;20029;-46
2023/08/20 11:24:52;;;;;;;4.95;4.22;;;30.90;98.10;;;;;;4994055;28;20026;-46
2023/08/20 11:27:18;;;;;;;4.28;3.97;;;30.80;97.40;;;;;;5026564;28;20022;-48
2023/08/20 11:29:44;;;;;;;7.57;4.68;;;30.70;98.20;;;;;;5010104;28;20026;-46
2023/08/20 11:32:10;;;;;;;6.35;3.72;;;30.70;98.40;;;;;;5010443;28;20030;-48
2023/08/20 11:34:38;;;;;;;4.65;3.83;;;30.80;99.00;;;;;;5011959;28;20037;-47
2023/08/20 11:37:04;;;;;;;5.70;3.70;;;30.70;98.20;;;;;;5026677;28;20091;-46
2023/08/20 11:39:30;;;;;;;5.22;3.53;;;30.60;97.50;;;;;;5026360;28;20128;-46
2023/08/20 11:41:56;;;;;;;5.25;4.18;;;30.50;98.10;;;;;;5010008;28;20608;-46
2023/08/20 11:44:22;;;;;;;3.92;3.15;;;30.50;98.90;;;;;;5026720;28;20388;-48
2023/08/20 11:46:48;;;;;;;4.10;3.70;;;30.50;98.60;;;;;;5011054;28;20484;-47
2023/08/20 11:49:15;;;;;;;6.30;4.18;;;30.60;97.90;;;;;;5026557;28;20033;-47
2023/08/20 11:51:47;;;;;;;3.50;3.20;;;30.60;96.70;;;;;;4994011;28;20484;-47
2023/08/20 11:54:16;;;;;;;13.68;11.18;;;30.50;96.80;;;;;;5011503;28;20117;-47
2023/08/20 11:56:49;;;;;;;5.45;4.90;;;30.50;97.80;;;;;;4993445;28;20022;-46
2023/08/20 11:59:17;;;;;;;11.65;6.60;;;30.40;97.00;;;;;;5026162;28;20030;-48
2023/08/20 12:01:43;;;;;;;4.53;3.65;;;30.50;97.00;;;;;;5026308;28;20018;-46
2023/08/20 12:04:10;;;;;;;3.67;3.08;;;30.50;96.80;;;;;;4993793;28;20034;-48
2023/08/20 12:06:37;;;;;;;9.48;3.00;;;30.50;96.90;;;;;;5009521;28;20080;-48
2023/08/20 12:09:22;;;;;;;4.43;3.33;;;30.50;96.50;;;;;;5026068;28;20072;-47
2023/08/20 12:11:51;;;;;;;;;;;30.50;96.50;;;;;;5027114;28;20022;-46
2023/08/20 12:14:20;;;;;;;14.07;3.40;;;30.60;96.80;;;;;;4993869;28;19905;-46
2023/08/20 12:16:46;;;;;;;3.80;3.50;;;30.60;97.00;;;;;;5011356;28;20022;-45
2023/08/20 12:19:13;;;;;;;7.50;3.17;;;30.60;97.20;;;;;;5011319;28;20029;-52
2023/08/20 12:21:39;;;;;;;3.97;3.67;;;30.70;97.10;;;;;;5026144;28;20075;-55
2023/08/20 12:24:05;;;;;;;5.15;3.53;;;30.70;97.60;;;;;;4996786;28;20025;-49
2023/08/20 12:26:30;;;;;;;7.53;3.35;;;30.60;97.60;;;;;;5014834;28;20092;-46
2023/08/20 12:28:56;;;;;;;6.38;4.15;;;30.70;96.80;;;;;;5014643;28;20018;-46
2023/08/20 12:31:21;;;;;;;4.43;3.42;;;30.80;97.10;;;;;;5013366;28;20493;-54
2023/08/20 12:33:47;;;;;;;4.13;3.50;;;30.70;96.90;;;;;;5029952;28;20129;-47
2023/08/20 12:36:12;;;;;;;6.00;3.95;;;30.80;97.30;;;;;;5029926;28;20160;-47
2023/08/20 12:38:38;;;;;;;6.53;3.53;;;30.70;97.60;;;;;;5014528;28;20033;-47
2023/08/20 12:41:05;;;;;;;4.78;3.53;;;30.70;98.30;;;;;;5029688;28;20025;-47
2023/08/20 12:43:31;;;;;;;10.75;5.72;;;30.60;97.70;;;;;;5013692;28;20033;-50